createdAt,value
2023-04-26T00:02:15.860Z,2.33
2023-04-26T00:04:42.474Z,2.32
2023-04-26T00:07:09.010Z,2.30
2023-04-26T00:09:35.683Z,2.29
2023-04-26T00:12:02.821Z,2.09
2023-04-26T00:14:29.343Z,1.82
2023-04-26T00:16:56.312Z,1.70
2023-04-26T00:19:24.016Z,1.61
2023-04-26T00:21:50.475Z,1.59
2023-04-26T00:24:17.021Z,1.71
2023-04-26T00:26:43.483Z,1.75
2023-04-26T00:29:09.954Z,1.61
2023-04-26T00:31:36.508Z,1.65
2023-04-26T00:34:03.004Z,1.42
2023-04-26T00:36:29.537Z,1.30
2023-04-26T00:38:56.048Z,1.41
2023-04-26T00:41:22.631Z,1.33
2023-04-26T00:43:49.145Z,1.30
2023-04-26T00:46:15.764Z,1.15
2023-04-26T00:48:42.566Z,1.21
2023-04-26T00:51:09.651Z,1.23
2023-04-26T00:53:36.615Z,1.29
2023-04-26T00:56:06.669Z,1.30
2023-04-26T00:58:33.314Z,1.39
2023-04-26T01:00:59.899Z,1.43
2023-04-26T01:03:26.727Z,1.27
2023-04-26T01:05:53.526Z,1.12
2023-04-26T01:08:21.778Z,1.00
2023-04-26T01:10:52.980Z,0.95
2023-04-26T01:13:19.457Z,1.16
2023-04-26T01:15:47.773Z,1.22
2023-04-26T01:18:15.192Z,1.27
2023-04-26T01:20:42.973Z,1.27
2023-04-26T01:23:11.622Z,1.12
2023-04-26T01:25:38.782Z,0.93
2023-04-26T01:28:05.718Z,0.60
2023-04-26T01:30:32.172Z,0.74
2023-04-26T01:32:58.722Z,0.86
2023-04-26T01:35:25.343Z,0.97
2023-04-26T01:37:51.800Z,1.04
2023-04-26T01:40:18.554Z,1.07
2023-04-26T01:42:45.085Z,1.10
2023-04-26T01:45:12.152Z,1.11
2023-04-26T01:47:38.623Z,1.07
2023-04-26T01:50:06.239Z,1.11
2023-04-26T01:52:32.726Z,1.08
2023-04-26T01:54:59.267Z,1.07
2023-04-26T01:57:25.750Z,1.12
2023-04-26T01:59:52.187Z,1.18
2023-04-26T02:02:18.991Z,1.22
2023-04-26T02:04:45.527Z,1.21
2023-04-26T02:07:11.992Z,1.18
2023-04-26T02:09:38.456Z,1.14
2023-04-26T02:12:05.144Z,1.14
2023-04-26T02:14:32.177Z,1.01
2023-04-26T02:16:58.761Z,0.94
2023-04-26T02:19:25.823Z,0.79
2023-04-26T02:21:55.811Z,0.77
2023-04-26T02:24:25.009Z,0.66
2023-04-26T02:26:52.297Z,0.91
2023-04-26T02:29:22.683Z,0.93
2023-04-26T02:31:53.427Z,0.81
2023-04-26T02:34:19.924Z,0.88
2023-04-26T02:36:46.648Z,0.89
2023-04-26T02:39:13.366Z,0.91
2023-04-26T02:41:39.909Z,0.85
2023-04-26T02:44:07.516Z,0.76
2023-04-26T02:46:34.155Z,0.51
2023-04-26T02:49:00.787Z,0.49
2023-04-26T02:51:27.383Z,0.48
2023-04-26T02:53:53.894Z,0.31
2023-04-26T02:56:20.557Z,0.42
2023-04-26T02:58:47.123Z,0.37
2023-04-26T03:01:14.584Z,0.31
2023-04-26T03:03:41.307Z,0.23
2023-04-26T03:06:08.139Z,0.20
2023-04-26T03:08:36.529Z,0.32
2023-04-26T03:11:03.512Z,0.33
2023-04-26T03:13:30.073Z,0.27
2023-04-26T03:15:56.598Z,0.36
2023-04-26T03:18:23.058Z,0.24
2023-04-26T03:20:49.858Z,-0.19
2023-04-26T03:23:16.368Z,-0.28
2023-04-26T03:25:42.917Z,-0.12
2023-04-26T03:28:09.387Z,0.02
2023-04-26T03:30:35.905Z,-0.05
2023-04-26T03:33:02.550Z,-0.13
2023-04-26T03:35:29.064Z,-0.15
2023-04-26T03:37:57.340Z,-0.10
2023-04-26T03:40:25.258Z,0.05
2023-04-26T03:42:51.904Z,-0.02
2023-04-26T03:45:18.745Z,-0.19
2023-04-26T03:47:45.385Z,-0.08
2023-04-26T03:50:12.507Z,0.02
2023-04-26T03:52:39.003Z,0.09
2023-04-26T03:55:09.028Z,-0.01
2023-04-26T03:57:36.196Z,-0.18
2023-04-26T04:00:06.522Z,-0.23
2023-04-26T04:02:33.522Z,-0.22
2023-04-26T04:05:00.434Z,-0.08
2023-04-26T04:07:27.231Z,0.04
2023-04-26T04:09:53.722Z,0.10
2023-04-26T04:12:20.268Z,0.07
2023-04-26T04:14:47.289Z,0.07
2023-04-26T04:17:13.724Z,-0.03
2023-04-26T04:19:40.193Z,-0.13
2023-04-26T04:22:06.968Z,-0.29
2023-04-26T04:24:34.450Z,-0.26
2023-04-26T04:27:01.571Z,-0.21
2023-04-26T04:29:28.072Z,-0.16
2023-04-26T04:31:54.664Z,-0.14
2023-04-26T04:34:21.192Z,-0.27
2023-04-26T04:36:47.652Z,-0.33
2023-04-26T04:39:16.154Z,-0.27
2023-04-26T04:41:49.500Z,-0.14
2023-04-26T04:44:16.340Z,-0.06
2023-04-26T04:46:43.764Z,0.06
2023-04-26T04:49:12.517Z,0.08
2023-04-26T04:51:39.562Z,0.09
2023-04-26T04:54:14.161Z,0.06
2023-04-26T04:56:41.209Z,0.09
2023-04-26T04:59:08.492Z,0.10
2023-04-26T05:01:36.864Z,0.11
2023-04-26T05:04:03.920Z,0.00
2023-04-26T05:06:34.105Z,-0.02
2023-04-26T05:09:01.457Z,-0.11
2023-04-26T05:11:28.102Z,-0.17
2023-04-26T05:13:54.818Z,-0.11
2023-04-26T05:16:21.391Z,0.08
2023-04-26T05:18:47.926Z,0.13
2023-04-26T05:21:14.408Z,0.05
2023-04-26T05:23:40.933Z,0.03
2023-04-26T05:26:14.515Z,0.05
2023-04-26T05:28:41.995Z,0.18
2023-04-26T05:31:11.436Z,0.22
2023-04-26T05:33:38.438Z,0.25
2023-04-26T05:36:05.717Z,0.32
2023-04-26T05:38:32.261Z,0.43
2023-04-26T05:40:58.717Z,0.46
2023-04-26T05:43:25.171Z,0.42
2023-04-26T05:45:56.856Z,0.35
2023-04-26T05:48:25.072Z,0.38
2023-04-26T05:50:52.611Z,0.45
2023-04-26T05:53:20.591Z,0.40
2023-04-26T05:55:47.594Z,0.35
2023-04-26T05:58:14.162Z,0.41
2023-04-26T06:00:41.462Z,0.44
2023-04-26T06:03:08.619Z,0.61
2023-04-26T06:05:38.267Z,0.65
2023-04-26T06:08:05.754Z,0.77
2023-04-26T06:10:32.400Z,0.84
2023-04-26T06:12:58.872Z,1.02
2023-04-26T06:15:25.417Z,1.21
2023-04-26T06:17:51.967Z,1.32
2023-04-26T06:20:18.459Z,1.51
2023-04-26T06:22:44.924Z,1.68
2023-04-26T06:25:11.487Z,1.66
2023-04-26T06:27:39.117Z,1.80
2023-04-26T06:30:07.743Z,1.99
2023-04-26T06:32:34.355Z,2.17
2023-04-26T06:35:01.134Z,2.29
2023-04-26T06:37:28.218Z,2.34
2023-04-26T06:39:54.850Z,2.46
2023-04-26T06:42:21.369Z,2.60
2023-04-26T06:44:47.841Z,2.59
2023-04-26T06:47:14.574Z,2.57
2023-04-26T06:49:41.121Z,2.63
2023-04-26T06:52:09.341Z,2.59
2023-04-26T06:54:42.758Z,2.72
2023-04-26T06:57:16.527Z,2.85
2023-04-26T06:59:43.051Z,3.04
2023-04-26T07:02:09.569Z,3.32
2023-04-26T07:04:36.777Z,3.38
2023-04-26T07:07:03.609Z,3.60
2023-04-26T07:09:30.105Z,3.75
2023-04-26T07:11:56.566Z,4.09
2023-04-26T07:14:24.366Z,4.35
2023-04-26T07:16:50.814Z,4.57
2023-04-26T07:19:17.955Z,4.74
2023-04-26T07:21:44.488Z,4.95
2023-04-26T07:24:10.990Z,5.15
2023-04-26T07:26:37.470Z,5.21
2023-04-26T07:29:03.948Z,5.46
2023-04-26T07:31:32.076Z,5.63
2023-04-26T07:33:58.972Z,5.77
2023-04-26T07:36:26.460Z,6.00
2023-04-26T07:38:53.114Z,6.23
2023-04-26T07:41:19.614Z,6.38
2023-04-26T07:43:46.088Z,6.41
2023-04-26T07:46:12.696Z,6.44
2023-04-26T07:48:39.296Z,6.60
2023-04-26T07:51:12.001Z,6.74
2023-04-26T07:53:39.761Z,6.96
2023-04-26T07:56:08.296Z,7.06
2023-04-26T07:58:36.588Z,7.02
2023-04-26T08:01:04.098Z,7.29
2023-04-26T08:03:30.846Z,7.50
2023-04-26T08:05:59.061Z,7.71
2023-04-26T08:08:29.455Z,7.77
2023-04-26T08:10:56.397Z,7.60
2023-04-26T08:13:23.110Z,7.59
2023-04-26T08:15:49.757Z,7.63
2023-04-26T08:18:16.330Z,7.75
2023-04-26T08:20:42.918Z,7.68
2023-04-26T08:23:09.627Z,7.78
2023-04-26T08:25:36.289Z,7.87
2023-04-26T08:28:02.929Z,8.08
2023-04-26T08:30:29.574Z,8.01
2023-04-26T08:32:56.559Z,7.96
2023-04-26T08:35:23.260Z,8.22
2023-04-26T08:37:49.789Z,8.46
2023-04-26T08:40:27.070Z,8.75
2023-04-26T08:42:53.923Z,8.64
2023-04-26T08:45:21.585Z,8.62
2023-04-26T08:47:51.590Z,8.74
2023-04-26T08:50:23.570Z,8.91
2023-04-26T08:52:52.629Z,9.13
2023-04-26T08:55:21.701Z,9.22
2023-04-26T08:57:50.677Z,9.25
2023-04-26T09:00:19.638Z,9.08
2023-04-26T09:02:51.954Z,9.19
2023-04-26T09:05:27.191Z,9.47
2023-04-26T09:07:58.991Z,9.41
2023-04-26T09:10:26.305Z,9.53
2023-04-26T09:12:54.258Z,9.63
2023-04-26T09:15:23.182Z,9.87
2023-04-26T09:17:51.359Z,9.74
2023-04-26T09:20:30.305Z,9.58
2023-04-26T09:23:08.946Z,9.48
2023-04-26T09:25:37.092Z,9.39
2023-04-26T09:28:18.393Z,9.70
2023-04-26T09:30:44.906Z,9.74
2023-04-26T09:33:11.455Z,10.06
2023-04-26T09:35:40.789Z,10.21
2023-04-26T09:38:14.015Z,10.19
2023-04-26T09:40:44.930Z,10.02
2023-04-26T09:43:37.346Z,10.14
2023-04-26T09:46:03.833Z,10.43
2023-04-26T09:48:34.866Z,10.66
2023-04-26T09:51:04.158Z,10.41
2023-04-26T09:53:36.897Z,10.19
2023-04-26T09:56:14.872Z,10.21
2023-04-26T09:58:43.976Z,10.24
2023-04-26T10:01:11.875Z,10.66
2023-04-26T10:03:39.655Z,10.56
2023-04-26T10:06:06.892Z,10.63
2023-04-26T10:08:34.442Z,10.28
2023-04-26T10:11:04.060Z,10.56
2023-04-26T10:13:34.672Z,10.60
2023-04-26T10:16:02.248Z,10.69
2023-04-26T10:18:29.622Z,10.75
2023-04-26T10:21:02.115Z,11.01
2023-04-26T10:23:29.668Z,10.87
2023-04-26T10:25:56.416Z,10.92
2023-04-26T10:28:49.785Z,11.11
2023-04-26T10:31:18.087Z,11.00
2023-04-26T10:33:44.623Z,11.18
2023-04-26T10:36:14.377Z,11.19
2023-04-26T10:39:24.351Z,10.54
2023-04-26T10:41:50.839Z,10.62
2023-04-26T10:44:41.731Z,11.01
2023-04-26T10:47:31.583Z,11.21
2023-04-26T10:50:10.078Z,11.24
2023-04-26T10:52:58.852Z,11.00
2023-04-26T10:55:41.764Z,11.19
2023-04-26T10:58:31.995Z,11.45
2023-04-26T11:01:19.022Z,11.63
2023-04-26T11:03:58.413Z,11.04
2023-04-26T11:06:26.856Z,11.82
2023-04-26T11:08:54.458Z,12.22
2023-04-26T11:11:26.340Z,11.87
2023-04-26T11:13:52.864Z,11.83
2023-04-26T11:16:19.656Z,11.78
2023-04-26T11:18:47.740Z,11.46
2023-04-26T11:21:17.947Z,11.60
2023-04-26T11:23:54.590Z,12.00
2023-04-26T11:26:21.059Z,11.76
2023-04-26T11:28:49.512Z,11.39
2023-04-26T11:31:18.899Z,11.18
2023-04-26T11:33:45.994Z,10.84
2023-04-26T11:36:14.095Z,11.16
2023-04-26T11:38:40.870Z,11.55
2023-04-26T11:41:08.091Z,12.03
2023-04-26T11:43:39.768Z,12.05
2023-04-26T11:46:09.045Z,12.19
2023-04-26T11:48:38.334Z,12.13
2023-04-26T11:51:08.094Z,12.39
2023-04-26T11:53:43.122Z,12.50
2023-04-26T11:56:20.530Z,12.75
2023-04-26T11:58:52.776Z,12.86
2023-04-26T12:01:25.309Z,12.93
2023-04-26T12:04:00.124Z,13.07
2023-04-26T12:06:41.608Z,13.24
2023-04-26T12:09:11.575Z,12.89
2023-04-26T12:11:39.081Z,12.94
2023-04-26T12:14:07.674Z,12.98
2023-04-26T12:16:37.074Z,13.07
2023-04-26T12:19:08.105Z,13.00
2023-04-26T12:21:44.424Z,13.28
2023-04-26T12:24:34.355Z,13.47
2023-04-26T12:27:03.093Z,13.18
2023-04-26T12:29:31.919Z,13.01
2023-04-26T12:31:59.700Z,13.07
2023-04-26T12:34:26.357Z,12.86
2023-04-26T12:36:53.271Z,12.99
2023-04-26T12:39:19.766Z,13.49
2023-04-26T12:41:46.566Z,13.03
2023-04-26T12:44:14.439Z,13.27
2023-04-26T12:46:41.151Z,13.49
2023-04-26T12:49:07.863Z,13.51
2023-04-26T12:51:34.399Z,13.18
2023-04-26T12:54:00.907Z,13.33
2023-04-26T12:56:29.106Z,13.46
2023-04-26T12:58:55.748Z,13.50
2023-04-26T13:01:22.338Z,13.57
2023-04-26T13:03:49.110Z,13.69
2023-04-26T13:06:16.037Z,13.70
2023-04-26T13:08:42.666Z,13.59
2023-04-26T13:11:09.419Z,13.58
2023-04-26T13:13:43.024Z,13.39
2023-04-26T13:16:12.604Z,13.50
2023-04-26T13:18:39.968Z,13.41
2023-04-26T13:21:06.934Z,13.30
2023-04-26T13:23:33.455Z,13.46
2023-04-26T13:25:59.927Z,13.67
2023-04-26T13:28:26.426Z,13.57
2023-04-26T13:30:52.967Z,13.66
2023-04-26T13:33:21.293Z,13.85
2023-04-26T13:35:48.134Z,13.86
2023-04-26T13:38:15.848Z,13.81
2023-04-26T13:40:42.967Z,13.63
2023-04-26T13:43:09.702Z,13.86
2023-04-26T13:45:36.633Z,13.96
2023-04-26T13:48:03.498Z,14.10
2023-04-26T13:50:30.014Z,13.69
2023-04-26T13:52:56.624Z,13.82
2023-04-26T13:55:23.407Z,14.19
2023-04-26T13:57:49.935Z,14.42
2023-04-26T14:00:17.471Z,14.65
2023-04-26T14:02:44.172Z,14.63
2023-04-26T14:05:11.075Z,14.99
2023-04-26T14:07:37.724Z,14.96
2023-04-26T14:10:04.643Z,14.88
2023-04-26T14:12:31.233Z,14.79
2023-04-26T14:14:57.762Z,15.01
2023-04-26T14:17:25.499Z,14.92
2023-04-26T14:19:54.552Z,14.42
2023-04-26T14:22:21.350Z,13.73
2023-04-26T14:24:48.029Z,13.34
2023-04-26T14:27:14.757Z,13.39
2023-04-26T14:29:42.256Z,13.29
2023-04-26T14:32:08.850Z,13.01
2023-04-26T14:34:39.816Z,13.02
2023-04-26T14:37:06.748Z,12.94
2023-04-26T14:39:33.794Z,13.20
2023-04-26T14:42:00.554Z,13.09
2023-04-26T14:44:28.729Z,13.50
2023-04-26T14:46:55.521Z,13.57
2023-04-26T14:49:22.083Z,13.29
2023-04-26T14:51:48.962Z,13.14
2023-04-26T14:54:18.099Z,12.90
2023-04-26T14:56:44.711Z,12.96
2023-04-26T14:59:11.266Z,12.97
2023-04-26T15:01:38.407Z,13.22
2023-04-26T15:04:05.263Z,13.47
2023-04-26T15:06:33.350Z,13.63
2023-04-26T15:09:00.103Z,13.62
2023-04-26T15:11:26.592Z,13.60
2023-04-26T15:13:53.060Z,13.35
2023-04-26T15:16:19.591Z,13.56
2023-04-26T15:18:46.266Z,13.87
2023-04-26T15:21:20.419Z,14.10
2023-04-26T15:23:47.642Z,14.15
2023-04-26T15:26:14.578Z,14.32
2023-04-26T15:28:41.120Z,14.14
2023-04-26T15:31:11.616Z,14.08
2023-04-26T15:33:38.350Z,14.20
2023-04-26T15:36:05.447Z,14.36
2023-04-26T15:38:34.761Z,14.72
2023-04-26T15:41:01.240Z,15.18
2023-04-26T15:43:27.777Z,15.06
2023-04-26T15:45:54.712Z,15.57
2023-04-26T15:48:21.688Z,15.93
2023-04-26T15:50:48.183Z,15.95
2023-04-26T15:53:14.711Z,15.72
2023-04-26T15:55:41.501Z,16.00
2023-04-26T15:58:08.069Z,16.10
2023-04-26T16:00:36.236Z,15.85
2023-04-26T16:03:02.901Z,15.47
2023-04-26T16:05:31.404Z,15.36
2023-04-26T16:07:57.992Z,15.16
2023-04-26T16:10:24.500Z,15.26
2023-04-26T16:12:51.064Z,15.05
2023-04-26T16:15:17.742Z,15.15
2023-04-26T16:17:44.302Z,14.94
2023-04-26T16:20:11.468Z,14.96
2023-04-26T16:22:37.928Z,15.17
2023-04-26T16:25:06.604Z,14.99
2023-04-26T16:27:33.134Z,15.00
2023-04-26T16:29:59.669Z,14.91
2023-04-26T16:32:26.595Z,14.97
2023-04-26T16:34:53.371Z,15.08
2023-04-26T16:39:46.405Z,14.93
2023-04-26T16:42:12.945Z,14.48
2023-04-26T16:44:40.318Z,14.38
2023-04-26T16:47:06.887Z,14.15
2023-04-26T16:49:33.377Z,13.80
2023-04-26T16:52:00.004Z,13.42
2023-04-26T16:54:26.549Z,13.00
2023-04-26T16:56:53.822Z,12.70
2023-04-26T16:59:20.671Z,12.59
2023-04-26T17:01:47.487Z,12.54
2023-04-26T17:04:14.450Z,12.50
2023-04-26T17:06:41.248Z,12.43
2023-04-26T17:09:08.647Z,12.49
2023-04-26T17:11:37.336Z,12.30
2023-04-26T17:14:04.360Z,11.92
2023-04-26T17:16:31.087Z,11.48
2023-04-26T17:18:58.257Z,11.51
2023-04-26T17:21:24.841Z,11.27
2023-04-26T17:23:51.553Z,11.41
2023-04-26T17:26:18.160Z,11.55
2023-04-26T17:28:44.655Z,11.49
2023-04-26T17:31:11.149Z,11.36
2023-04-26T17:33:37.719Z,11.51
2023-04-26T17:36:04.975Z,11.45
2023-04-26T17:38:31.457Z,11.34
2023-04-26T17:40:59.329Z,11.37
2023-04-26T17:43:25.912Z,11.26
2023-04-26T17:45:52.459Z,11.18
2023-04-26T17:48:19.059Z,11.38
2023-04-26T17:50:45.713Z,11.29
2023-04-26T17:53:12.349Z,11.22
2023-04-26T17:55:38.869Z,11.26
2023-04-26T17:58:05.607Z,11.28
2023-04-26T18:00:32.121Z,11.28
2023-04-26T18:02:58.968Z,11.32
2023-04-26T18:05:26.062Z,11.26
2023-04-26T18:07:52.609Z,11.15
2023-04-26T18:10:19.253Z,11.17
2023-04-26T18:12:46.178Z,10.99
2023-04-26T18:15:13.836Z,10.97
2023-04-26T18:17:41.429Z,10.92
2023-04-26T18:20:09.269Z,10.87
2023-04-26T18:22:35.813Z,10.73
2023-04-26T18:25:02.343Z,10.76
2023-04-26T18:27:28.852Z,10.84
2023-04-26T18:29:55.408Z,10.65
2023-04-26T18:32:21.921Z,10.53
2023-04-26T18:34:48.439Z,10.49
2023-04-26T18:37:15.150Z,10.49
2023-04-26T18:39:41.671Z,10.39
2023-04-26T18:42:08.289Z,10.42
2023-04-26T18:44:34.794Z,10.31
2023-04-26T18:47:01.355Z,10.12
2023-04-26T18:49:27.925Z,9.95
2023-04-26T18:51:54.717Z,9.91
2023-04-26T18:54:21.294Z,9.98
2023-04-26T18:56:47.843Z,9.73
2023-04-26T18:59:14.323Z,9.74
2023-04-26T19:01:41.109Z,9.61
2023-04-26T19:04:09.026Z,9.59
2023-04-26T19:06:35.688Z,9.58
2023-04-26T19:09:02.465Z,9.57
2023-04-26T19:11:28.969Z,9.44
2023-04-26T19:13:55.482Z,9.29
2023-04-26T19:16:22.263Z,9.28
2023-04-26T19:18:49.006Z,9.22
2023-04-26T19:21:16.084Z,9.15
2023-04-26T19:23:44.292Z,9.10
2023-04-26T19:26:14.964Z,9.01
2023-04-26T19:28:41.542Z,8.97
2023-04-26T19:31:08.233Z,8.92
2023-04-26T19:33:34.840Z,8.85
2023-04-26T19:36:01.327Z,8.85
2023-04-26T19:38:28.621Z,8.85
2023-04-26T19:40:55.084Z,8.90
2023-04-26T19:43:21.633Z,9.02
2023-04-26T19:45:48.222Z,9.05
2023-04-26T19:48:14.934Z,8.97
2023-04-26T19:50:44.206Z,8.92
2023-04-26T19:53:13.187Z,8.85
2023-04-26T19:55:42.097Z,8.92
2023-04-26T19:58:10.444Z,8.92
2023-04-26T20:00:38.622Z,8.89
2023-04-26T20:03:05.853Z,8.77
2023-04-26T20:05:33.421Z,8.77
2023-04-26T20:07:59.958Z,8.80
2023-04-26T20:10:26.612Z,8.81
2023-04-26T20:12:53.257Z,8.84
2023-04-26T20:15:20.037Z,8.78
2023-04-26T20:17:46.852Z,8.71
2023-04-26T20:20:13.743Z,8.67
2023-04-26T20:22:40.728Z,8.69
2023-04-26T20:25:07.799Z,8.58
2023-04-26T20:27:34.363Z,8.47
2023-04-26T20:30:00.998Z,8.33
2023-04-26T20:32:27.692Z,8.09
2023-04-26T20:34:54.230Z,8.00
2023-04-26T20:37:21.760Z,7.87
2023-04-26T20:39:48.894Z,7.90
2023-04-26T20:42:15.631Z,7.85
2023-04-26T20:44:42.425Z,7.75
2023-04-26T20:47:08.958Z,7.71
2023-04-26T20:49:35.616Z,7.62
2023-04-26T20:52:02.063Z,7.54
2023-04-26T20:54:28.509Z,7.51
2023-04-26T20:56:55.389Z,7.39
2023-04-26T20:59:22.666Z,7.45
2023-04-26T21:01:50.527Z,7.61
2023-04-26T21:04:17.258Z,7.53
2023-04-26T21:06:43.824Z,7.50
2023-04-26T21:09:10.548Z,7.45
2023-04-26T21:11:37.263Z,7.46
2023-04-26T21:14:04.268Z,7.36
2023-04-26T21:16:30.879Z,7.31
2023-04-26T21:18:57.336Z,7.22
2023-04-26T21:23:50.829Z,7.29
2023-04-26T21:26:17.307Z,7.18
2023-04-26T21:28:43.773Z,7.14
2023-04-26T21:31:10.463Z,7.16
2023-04-26T21:33:36.971Z,7.29
2023-04-26T21:36:03.810Z,7.40
2023-04-26T21:38:30.297Z,7.36
2023-04-26T21:40:56.794Z,7.24
2023-04-26T21:43:23.514Z,7.20
2023-04-26T21:45:50.765Z,7.27
2023-04-26T21:48:17.267Z,7.37
2023-04-26T21:50:43.866Z,7.25
2023-04-26T21:53:10.615Z,7.13
2023-04-26T21:55:37.133Z,6.99
2023-04-26T21:58:03.608Z,7.03
2023-04-26T22:00:30.122Z,7.02
2023-04-26T22:02:56.892Z,7.01
2023-04-26T22:05:25.850Z,7.12
2023-04-26T22:07:54.414Z,7.02
2023-04-26T22:10:21.439Z,6.97
2023-04-26T22:12:47.959Z,6.81
2023-04-26T22:15:14.578Z,7.05
2023-04-26T22:17:41.181Z,7.10
2023-04-26T22:20:08.431Z,7.08
2023-04-26T22:22:34.928Z,6.98
2023-04-26T22:25:01.536Z,7.01
2023-04-26T22:27:29.019Z,7.11
2023-04-26T22:29:55.465Z,7.23
2023-04-26T22:32:22.092Z,7.23
2023-04-26T22:34:49.005Z,7.06
2023-04-26T22:37:21.129Z,6.97
2023-04-26T22:39:49.300Z,6.89
2023-04-26T22:42:16.042Z,6.85
2023-04-26T22:44:42.508Z,6.88
2023-04-26T22:47:08.954Z,6.88
2023-04-26T22:49:35.611Z,6.88
2023-04-26T22:52:09.722Z,7.09
2023-04-26T22:54:40.995Z,6.95
2023-04-26T22:57:08.191Z,6.99
2023-04-26T22:59:34.870Z,6.94
2023-04-26T23:02:02.105Z,6.91
2023-04-26T23:04:28.630Z,6.85
2023-04-26T23:06:55.268Z,7.01
2023-04-26T23:09:21.741Z,7.07
2023-04-26T23:11:48.285Z,6.90
2023-04-26T23:14:15.788Z,6.70
2023-04-26T23:16:42.545Z,6.60
2023-04-26T23:19:09.586Z,6.55
2023-04-26T23:21:36.271Z,6.48
2023-04-26T23:24:03.286Z,6.42
2023-04-26T23:26:29.725Z,6.53
2023-04-26T23:28:57.155Z,6.52
2023-04-26T23:31:32.123Z,6.42
2023-04-26T23:34:09.944Z,6.40
2023-04-26T23:36:36.479Z,6.36
2023-04-26T23:39:03.752Z,6.48
2023-04-26T23:41:39.350Z,6.41
2023-04-26T23:44:05.868Z,6.41
2023-04-26T23:46:32.398Z,6.35
2023-04-26T23:48:58.921Z,6.29
2023-04-26T23:51:26.366Z,6.35
2023-04-26T23:53:52.965Z,6.26
2023-04-26T23:56:19.768Z,6.28
2023-04-26T23:58:46.502Z,6.40
